SILO ALERT LOG


Silo ID Alert Type Alert Message Silo Type Points Depth (mm) Strength Temperature (°C) Humidity (%) Height (mm) Volume (㎥) Weight (t) Flag Time
DJSAD12 Humidity 습도센서 측정값이 80% 초과 0 7700 0 3.1 86.5 -120 -17.075 0 31 2024-01-09 20:39:32.000
DJSAD18 Humidity 습도센서 측정값이 80% 초과 120 1513 5831 4.8 80.8 6066 604.078 381.898 11 2024-01-09 20:39:31.000
DJSAD11 Humidity 습도센서 측정값이 80% 초과 290 1502 13137 1.8 80.3 6077 864.772 546.709 11 2024-01-09 20:39:31.000
DJSAD08 Humidity 습도센서 측정값이 80% 초과 588 2597 4930 7.5 84.9 4982 708.985 448.22 12 2024-01-09 20:39:31.000
DJSAD16 Humidity 습도센서 측정값이 80% 초과 89 6508 3388 4.5 80.1 1071 106.675 67.44 11 2024-01-09 20:39:30.000
DJSAD17 Humidity 습도센서 측정값이 80% 초과 441 3125 4873 4 80.4 4454 443.603 280.446 0 2024-01-09 20:39:30.000
DJHNR03 Temperature 온도센서 상태 이상 호퍼 0 15500 0 -999 -999 -119 0 0 31 2024-01-09 20:39:24.000
DJSSD12 Temperature 온도센서 상태 이상 호퍼 0 11350 0 -999 -999 -120 0 0 31 2024-01-09 20:39:24.000
DJHNR12 Humidity 습도센서 측정값이 80% 초과 호퍼 0 10500 0 1 81 -120 0 0 31 2024-01-09 20:39:23.000
DJSAD01 Humidity 습도센서 측정값이 80% 초과 463 1484 7340 1.6 87.7 7295 302.011 190.931 0 2024-01-09 19:39:40.000
DJSAD03 Humidity 습도센서 측정값이 80% 초과 448 1672 6152 2.9 84.5 7107 294.225 186.009 0 2024-01-09 19:39:39.000
DJSAD02 Humidity 습도센서 측정값이 80% 초과 379 1141 4295 2.4 87 7638 316.193 199.897 11 2024-01-09 19:39:38.000
DJSSD04 Temperature 온도센서 상태 이상 0 8200 0 -999 -999 -120 -16.702 0 31 2024-01-09 19:39:34.000
DJSSD09 Temperature 온도센서 측정값이 0도 미만 123 2912 3551 -45.4 0 4767 663.543 419.492 11 2024-01-09 19:39:33.000
DJSSD05 Temperature 온도센서 측정값이 0도 미만 847 2538 4817 -45.4 43.7 5541 771.295 487.613 0 2024-01-09 19:39:33.000
DJHNR01 Humidity 습도센서 측정값이 80% 초과 호퍼 471 4307 5058 4.6 99.9 11072 472.843 298.931 13 2024-01-09 19:39:33.000
DJSAD07 Humidity 습도센서 측정값이 80% 초과 229 5200 812 3.9 85.9 2379 338.558 214.036 11 2024-01-09 19:39:33.000
DJHNR11 Temperature 온도센서 측정값이 0도 미만 호퍼 118 2014 2602 -1 74.9 8365 126.497 79.971 11 2024-01-09 19:39:33.000
DJSAD08 Humidity 습도센서 측정값이 80% 초과 595 2546 4936 7.5 84.8 5033 716.288 452.838 12 2024-01-09 19:39:33.000
DJDJD04 Humidity 습도센서 측정값이 80% 초과 278 4201 4434 5 80.8 3478 421.441 266.435 11 2024-01-09 19:39:33.000

[첫 페이지] [10035] [10036] [10037] [10038] 10039 [10040] [10041] [10042] [10043] [마지막 페이지]